createdAt,value
2018-02-19T06:49:41.355Z,23.00
2018-02-19T06:52:07.761Z,23.75
2018-02-19T06:54:34.129Z,25.23
2018-02-19T06:57:00.522Z,25.90
2018-02-19T06:59:26.950Z,25.62
2018-02-19T07:01:53.391Z,26.08
2018-02-19T07:04:19.770Z,24.77
2018-02-19T07:06:46.509Z,24.55
2018-02-19T07:09:12.952Z,28.70
2018-02-19T07:11:39.407Z,25.60
2018-02-19T07:14:06.610Z,25.73
2018-02-19T07:16:32.985Z,25.40
2018-02-19T07:18:59.379Z,27.98
2018-02-19T07:21:25.786Z,26.67
2018-02-19T07:23:52.198Z,25.50
2018-02-19T07:26:19.305Z,24.02
2018-02-19T07:28:45.705Z,24.00
2018-02-19T07:31:12.158Z,23.52
2018-02-19T07:33:38.571Z,22.27
2018-02-19T07:36:05.072Z,22.87
2018-02-19T07:38:31.439Z,22.90
2018-02-19T07:40:57.859Z,31.87
2018-02-19T07:43:25.093Z,25.25
2018-02-19T07:45:51.550Z,24.50
2018-02-19T07:48:18.750Z,25.30
2018-02-19T07:50:45.193Z,24.55
2018-02-19T07:53:11.630Z,23.50
2018-02-19T07:55:38.150Z,24.60
2018-02-19T07:58:04.607Z,22.85
2018-02-19T08:00:31.072Z,23.67
2018-02-19T08:02:58.243Z,25.98
2018-02-19T08:05:24.672Z,30.37
2018-02-19T08:07:51.140Z,23.35
2018-02-19T08:10:17.532Z,24.00
2018-02-19T08:12:44.651Z,23.38
2018-02-19T08:15:11.262Z,25.40
2018-02-19T08:17:37.646Z,22.08
2018-02-19T08:20:04.811Z,22.67
2018-02-19T08:22:32.026Z,22.48
2018-02-19T08:24:58.413Z,26.73
2018-02-19T08:27:24.826Z,27.90
2018-02-19T08:29:51.949Z,24.20
2018-02-19T08:32:25.316Z,26.83
2018-02-19T08:34:51.711Z,23.73
2018-02-19T08:37:18.166Z,24.23
2018-02-19T08:39:44.590Z,23.73
2018-02-19T08:42:10.970Z,22.67
2018-02-19T08:44:37.383Z,28.17
2018-02-19T08:47:03.767Z,26.40
2018-02-19T08:49:30.194Z,24.00
2018-02-19T08:51:56.600Z,21.87
2018-02-19T08:54:23.215Z,21.73
2018-02-19T08:56:49.618Z,21.75
2018-02-19T08:59:16.782Z,21.42
2018-02-19T09:01:43.951Z,21.87
2018-02-19T09:04:10.346Z,22.42
2018-02-19T09:06:37.500Z,21.98
2018-02-19T09:09:04.696Z,22.23
2018-02-19T09:11:31.102Z,25.77
2018-02-19T09:14:01.848Z,20.67
2018-02-19T09:16:28.385Z,21.70
2018-02-19T09:18:54.786Z,22.00
2018-02-19T09:21:21.176Z,19.47
2018-02-19T09:23:47.588Z,20.12
2018-02-19T09:26:14.093Z,20.95
2018-02-19T09:28:40.512Z,20.30
2018-02-19T09:31:06.924Z,20.47
2018-02-19T09:33:33.303Z,22.00
2018-02-19T09:36:00.449Z,21.77
2018-02-19T09:38:27.576Z,19.60
2018-02-19T09:40:53.994Z,20.42
2018-02-19T09:43:20.382Z,21.00
2018-02-19T09:45:47.539Z,20.27
2018-02-19T09:48:14.690Z,19.17
2018-02-19T09:50:41.815Z,20.37
2018-02-19T09:53:08.257Z,19.40
2018-02-19T09:55:34.651Z,19.83
2018-02-19T09:58:01.071Z,20.35
2018-02-19T10:00:27.535Z,20.15
2018-02-19T10:02:53.975Z,19.48
2018-02-19T10:05:20.417Z,18.80
2018-02-19T10:07:46.828Z,20.40
2018-02-19T10:10:13.404Z,17.42
2018-02-19T10:12:39.810Z,16.65
2018-02-19T10:15:06.209Z,15.00
2018-02-19T10:17:32.618Z,15.52
2018-02-19T10:19:59.768Z,15.07
2018-02-19T10:22:26.930Z,15.65
2018-02-19T10:24:53.326Z,15.00
2018-02-19T10:27:19.734Z,17.87
2018-02-19T11:38:10.138Z,19.02
2018-02-19T11:40:36.554Z,19.27
2018-02-19T11:43:02.929Z,20.95
2018-02-19T11:45:29.375Z,22.25
2018-02-19T11:47:56.500Z,20.30
2018-02-19T11:50:22.905Z,19.33
2018-02-19T11:52:49.315Z,21.00
2018-02-19T11:55:15.745Z,17.42
2018-02-19T11:57:42.887Z,17.50
2018-02-19T12:00:10.008Z,16.23
2018-02-19T12:02:36.414Z,17.40
2018-02-19T12:05:02.822Z,17.35
2018-02-19T12:07:29.235Z,15.00
2018-02-19T15:00:47.766Z,23.87
2018-02-19T15:03:14.188Z,24.65
2018-02-19T15:05:40.565Z,23.52
2018-02-19T15:08:13.976Z,24.33
2018-02-19T15:10:40.390Z,26.17
2018-02-19T15:13:06.757Z,25.23
2018-02-19T15:15:33.169Z,26.40
2018-02-19T15:17:59.619Z,25.85
2018-02-19T15:20:26.061Z,26.67
2018-02-19T15:22:52.499Z,26.95
2018-02-19T15:25:18.928Z,32.90
2018-02-19T15:27:46.072Z,30.60
2018-02-19T15:30:12.459Z,29.30
2018-02-19T15:32:38.870Z,29.70
2018-02-19T15:35:05.986Z,27.50
2018-02-19T15:37:32.418Z,28.17
2018-02-19T15:39:58.803Z,28.70
2018-02-19T15:42:25.219Z,28.17
2018-02-19T15:44:52.371Z,29.92
2018-02-19T15:47:19.515Z,29.65
2018-02-19T15:49:46.690Z,28.85
2018-02-19T15:52:13.070Z,28.95
2018-02-19T15:54:39.485Z,35.17
2018-02-19T15:57:05.870Z,30.17
2018-02-19T15:59:33.137Z,28.55
2018-02-19T16:02:00.278Z,28.45
2018-02-19T16:04:27.418Z,31.52
2018-02-19T16:06:53.823Z,35.50
2018-02-19T16:09:20.223Z,30.55
2018-02-19T16:11:46.687Z,28.80
2018-02-19T16:14:13.086Z,29.08
2018-02-19T16:16:39.509Z,28.80
2018-02-19T16:19:05.945Z,27.80
2018-02-19T16:21:33.170Z,27.73
2018-02-19T16:23:59.583Z,29.02
2018-02-19T16:26:25.990Z,28.20
2018-02-19T16:28:52.510Z,26.57
2018-02-19T16:31:18.901Z,27.23
2018-02-19T16:33:46.102Z,25.75
2018-02-19T16:36:12.484Z,26.52
2018-02-19T16:38:38.900Z,26.40
2018-02-19T16:41:05.315Z,34.55
2018-02-19T16:43:32.096Z,58.08
2018-02-19T16:45:58.668Z,45.58
2018-02-19T16:48:25.362Z,49.05
2018-02-19T16:50:52.138Z,29.58
2018-02-19T16:53:20.763Z,26.92
2018-02-19T16:55:47.547Z,30.35
2018-02-19T16:58:15.180Z,32.40
2018-02-19T17:00:41.733Z,29.10
2018-02-19T17:03:08.564Z,27.17
2018-02-19T17:05:35.534Z,27.37
2018-02-19T17:08:02.022Z,30.80
2018-02-19T17:10:28.911Z,29.98
2018-02-19T17:12:55.321Z,32.75
2018-02-19T17:15:21.742Z,31.20
2018-02-19T17:17:48.184Z,33.20
2018-02-19T17:20:14.607Z,30.58
2018-02-19T17:22:41.144Z,28.70
2018-02-19T17:25:07.564Z,27.60
2018-02-19T17:27:34.713Z,27.80
2018-02-19T17:30:01.867Z,26.23
2018-02-19T17:32:29.056Z,27.65
2018-02-19T17:34:55.538Z,27.80
2018-02-19T17:37:21.957Z,26.70
2018-02-19T17:39:48.361Z,27.33
2018-02-19T17:42:14.792Z,26.17
2018-02-19T17:44:41.222Z,26.25
2018-02-19T17:47:07.691Z,28.45
2018-02-19T17:49:34.151Z,27.67
2018-02-19T17:52:00.577Z,29.87
2018-02-19T17:54:28.963Z,27.92
2018-02-19T17:56:56.784Z,26.67
2018-02-19T17:59:23.226Z,27.90
2018-02-19T18:01:49.694Z,26.15
2018-02-19T18:04:16.147Z,27.87
2018-02-19T18:06:43.375Z,27.07
2018-02-19T18:09:09.956Z,57.83
2018-02-19T18:11:36.347Z,57.35
2018-02-19T18:14:02.780Z,31.83
2018-02-19T18:16:29.200Z,26.48
2018-02-19T18:18:55.701Z,28.15
2018-02-19T18:21:22.142Z,29.30
2018-02-19T18:23:48.587Z,30.67
2018-02-19T18:26:20.473Z,31.15
2018-02-19T18:28:51.688Z,30.58
2018-02-19T18:31:21.675Z,33.33
2018-02-19T18:33:48.878Z,33.72
2018-02-19T18:36:15.289Z,41.20
2018-02-19T18:38:41.746Z,37.38
2018-02-19T18:41:08.174Z,36.10
2018-02-19T18:43:34.592Z,37.15
2018-02-19T18:46:00.975Z,35.38
2018-02-19T18:48:27.406Z,35.17
2018-02-19T18:50:53.789Z,31.87
2018-02-19T18:53:20.197Z,31.33
2018-02-19T18:55:47.441Z,30.98
2018-02-19T18:58:13.837Z,30.20
2018-02-19T19:00:40.235Z,29.90
2018-02-19T19:03:06.678Z,31.00
2018-02-19T19:05:33.098Z,30.58
2018-02-19T19:08:11.857Z,31.62
2018-02-19T19:10:51.405Z,31.35
2018-02-19T19:13:17.942Z,34.05
2018-02-19T19:15:44.331Z,36.20
2018-02-19T19:18:11.579Z,34.38
2018-02-19T19:20:38.685Z,34.30
2018-02-19T19:23:05.108Z,28.98
2018-02-19T19:25:31.521Z,30.45
2018-02-19T19:27:57.925Z,29.27
2018-02-19T19:30:25.086Z,35.90
2018-02-19T19:32:52.214Z,36.67
2018-02-19T19:35:19.371Z,36.55
2018-02-19T19:37:46.546Z,36.35
2018-02-19T19:40:12.970Z,36.92
2018-02-19T19:42:40.087Z,39.83
2018-02-19T19:45:06.503Z,86.07
2018-02-19T19:47:32.966Z,37.03
2018-02-19T19:50:00.104Z,31.85
2018-02-19T19:52:26.485Z,27.73
2018-02-19T19:54:53.714Z,27.83
2018-02-19T19:57:20.095Z,25.23
2018-02-19T20:04:39.882Z,35.17
2018-02-19T20:07:06.353Z,29.60
2018-02-19T20:09:32.727Z,37.38
2018-02-19T20:11:59.166Z,40.10
2018-02-19T20:14:25.580Z,30.60
2018-02-19T20:16:52.018Z,30.10
2018-02-19T20:19:18.421Z,28.20
2018-02-19T20:21:44.807Z,27.75
2018-02-19T20:24:11.945Z,34.25
2018-02-19T20:26:39.090Z,26.45
2018-02-19T20:29:05.493Z,28.25
2018-02-19T20:31:31.883Z,31.87
2018-02-19T20:33:59.055Z,28.08
2018-02-19T20:36:25.458Z,28.77
2018-02-19T20:38:52.569Z,29.35
2018-02-19T20:41:19.090Z,28.60
2018-02-19T20:43:45.475Z,27.80
2018-02-19T20:46:12.633Z,30.85
2018-02-19T20:48:39.035Z,28.05
2018-02-19T20:51:05.450Z,31.62
2018-02-19T20:53:31.857Z,30.85
2018-02-19T20:55:59.026Z,31.95
2018-02-19T20:58:25.431Z,31.90
2018-02-19T21:00:52.592Z,32.08
2018-02-19T21:03:19.733Z,30.80
2018-02-19T21:05:46.912Z,32.38
2018-02-19T21:08:13.320Z,30.23
2018-02-19T21:10:40.480Z,27.77
2018-02-19T21:13:07.635Z,26.60
2018-02-19T21:15:34.790Z,28.87
2018-02-19T21:18:01.179Z,29.58
2018-02-19T21:20:27.583Z,37.95
2018-02-19T21:22:53.953Z,31.25
2018-02-19T21:25:20.374Z,29.70
2018-02-19T21:27:46.743Z,30.80
2018-02-19T21:30:13.886Z,32.35
2018-02-19T21:32:41.061Z,30.70
2018-02-19T21:35:08.241Z,40.80
2018-02-19T21:37:34.639Z,39.60
2018-02-19T21:40:01.902Z,34.17
2018-02-19T21:42:28.310Z,32.85
2018-02-19T21:44:54.693Z,32.47
2018-02-19T21:47:21.086Z,30.35
2018-02-19T21:49:48.216Z,30.30
2018-02-19T21:52:15.351Z,30.58
2018-02-19T21:54:41.748Z,32.15
2018-02-19T21:57:08.132Z,31.30
2018-02-19T21:59:34.535Z,31.17
2018-02-19T22:02:00.932Z,31.23
2018-02-19T22:04:28.092Z,29.52
2018-02-19T22:06:54.510Z,31.60
2018-02-19T22:09:21.678Z,28.35
2018-02-19T22:11:48.086Z,31.62
2018-02-19T22:14:15.200Z,33.47
2018-02-19T22:16:41.614Z,30.98
2018-02-19T22:19:07.995Z,29.45
2018-02-19T22:21:34.414Z,31.25
2018-02-19T22:24:00.806Z,30.58
2018-02-19T22:26:27.185Z,29.48
2018-02-19T22:28:53.614Z,40.63
2018-02-19T22:31:19.997Z,43.75
2018-02-19T22:33:47.135Z,41.33
2018-02-19T22:36:14.271Z,42.65
2018-02-19T22:38:40.670Z,38.90
2018-02-19T22:41:07.053Z,41.40
2018-02-19T22:43:34.199Z,40.53
2018-02-19T22:46:00.605Z,38.73
2018-02-19T22:48:26.992Z,39.58
2018-02-19T22:50:53.457Z,38.55
2018-02-19T22:53:19.850Z,39.50
2018-02-19T22:55:47.005Z,37.83
2018-02-19T22:58:14.163Z,41.37
2018-02-19T23:00:40.606Z,40.58
2018-02-19T23:03:06.975Z,39.90
2018-02-19T23:05:33.381Z,41.25
2018-02-19T23:07:59.754Z,40.08
2018-02-19T23:10:26.161Z,41.75
2018-02-19T23:12:52.586Z,40.00
2018-02-19T23:15:18.966Z,40.00
2018-02-19T23:17:46.106Z,41.35
2018-02-19T23:20:12.494Z,38.75
2018-02-19T23:22:38.885Z,40.83
2018-02-19T23:25:06.037Z,42.42
2018-02-19T23:27:32.449Z,42.38
2018-02-19T23:29:58.857Z,40.55
2018-02-19T23:32:25.249Z,40.40
2018-02-19T23:34:52.397Z,39.55
2018-02-19T23:37:19.529Z,39.95
2018-02-19T23:39:45.942Z,39.63
2018-02-19T23:42:12.318Z,38.35
2018-02-19T23:44:38.722Z,38.78
2018-02-19T23:47:05.103Z,40.92
2018-02-19T23:49:32.238Z,40.12
2018-02-19T23:51:58.730Z,40.80
2018-02-19T23:54:34.413Z,42.13
2018-02-19T23:57:00.779Z,42.20
2018-02-19T23:59:27.914Z,40.97
